Jeff, Indiana
Current Conditions -  °F | °C
As of 12:53 AM on Wednesday 22 Oct 2014 (Local Time) from KLOU Reporting Station
Clear Clear  
Wind Chill: 50°   Ceiling: Unl
Heat Index: 50°   Visibility: 10mi
Dew Point: 42°   Wind: 3mph
Humidity: 74%   Direction: 40°NE
Pressure: 30.18"   Gusts: NA
Location:  38.3141°N, 85.7691°W
Report Text: KLOU 220453Z AUTO 04003KT 10SM CLR 10/06 A3018 RMK AO2 SLP220 T01000056 401670061
Loading
Personal Weather Stations






























Interactive Weather Map
Tropical Storm Tracking
New forecast layout! Learn more

10-Day Weather Forecast

Advertisements
Track Severe Weather on mobile